sensor_id;sensor_type;location;lat;lon;timestamp;P1;durP1;ratioP1;P2;durP2;ratioP2
37955;SDS011;23776;51.592;7.180;2022-10-16T00:01:32;8.23;;;3.45;;
37955;SDS011;23776;51.592;7.180;2022-10-16T00:03:58;10.32;;;2.85;;
37955;SDS011;23776;51.592;7.180;2022-10-16T00:06:25;7.63;;;3.58;;
37955;SDS011;23776;51.592;7.180;2022-10-16T00:08:52;7.13;;;3.60;;
37955;SDS011;23776;51.592;7.180;2022-10-16T00:11:22;7.95;;;4.05;;
37955;SDS011;23776;51.592;7.180;2022-10-16T00:13:48;7.18;;;3.78;;
37955;SDS011;23776;51.592;7.180;2022-10-16T00:16:15;12.80;;;3.75;;
37955;SDS011;23776;51.592;7.180;2022-10-16T00:18:42;10.90;;;3.42;;
37955;SDS011;23776;51.592;7.180;2022-10-16T00:21:08;13.55;;;3.83;;
37955;SDS011;23776;51.592;7.180;2022-10-16T00:23:39;6.80;;;2.92;;
37955;SDS011;23776;51.592;7.180;2022-10-16T00:26:07;6.68;;;3.08;;
37955;SDS011;23776;51.592;7.180;2022-10-16T00:28:36;6.85;;;2.88;;
37955;SDS011;23776;51.592;7.180;2022-10-16T00:31:04;7.65;;;2.85;;
37955;SDS011;23776;51.592;7.180;2022-10-16T00:33:32;8.15;;;3.38;;
37955;SDS011;23776;51.592;7.180;2022-10-16T00:35:58;7.22;;;3.00;;
37955;SDS011;23776;51.592;7.180;2022-10-16T00:38:24;9.90;;;2.92;;
37955;SDS011;23776;51.592;7.180;2022-10-16T00:40:50;6.63;;;2.80;;
37955;SDS011;23776;51.592;7.180;2022-10-16T00:46:04;6.80;;;2.83;;
37955;SDS011;23776;51.592;7.180;2022-10-16T00:48:43;6.35;;;3.28;;
37955;SDS011;23776;51.592;7.180;2022-10-16T00:51:14;5.15;;;2.58;;
37955;SDS011;23776;51.592;7.180;2022-10-16T00:53:43;5.75;;;2.80;;
37955;SDS011;23776;51.592;7.180;2022-10-16T00:56:09;9.65;;;3.30;;
37955;SDS011;23776;51.592;7.180;2022-10-16T00:58:35;4.55;;;2.60;;
37955;SDS011;23776;51.592;7.180;2022-10-16T01:01:01;5.20;;;2.95;;
37955;SDS011;23776;51.592;7.180;2022-10-16T01:03:34;7.25;;;3.28;;
37955;SDS011;23776;51.592;7.180;2022-10-16T01:06:19;5.35;;;3.05;;
37955;SDS011;23776;51.592;7.180;2022-10-16T01:09:20;6.30;;;2.63;;
37955;SDS011;23776;51.592;7.180;2022-10-16T01:17:04;7.82;;;2.50;;
37955;SDS011;23776;51.592;7.180;2022-10-16T01:19:41;5.13;;;2.53;;
37955;SDS011;23776;51.592;7.180;2022-10-16T01:22:16;7.32;;;2.53;;
37955;SDS011;23776;51.592;7.180;2022-10-16T01:24:46;3.85;;;2.42;;
37955;SDS011;23776;51.592;7.180;2022-10-16T01:27:15;5.30;;;2.00;;
37955;SDS011;23776;51.592;7.180;2022-10-16T01:38:21;7.00;;;2.33;;
37955;SDS011;23776;51.592;7.180;2022-10-16T01:40:56;3.13;;;2.03;;
37955;SDS011;23776;51.592;7.180;2022-10-16T01:43:48;5.07;;;2.13;;
37955;SDS011;23776;51.592;7.180;2022-10-16T01:46:15;4.65;;;2.08;;
37955;SDS011;23776;51.592;7.180;2022-10-16T01:48:43;4.55;;;2.25;;
37955;SDS011;23776;51.592;7.180;2022-10-16T01:51:10;4.45;;;2.30;;
37955;SDS011;23776;51.592;7.180;2022-10-16T01:53:38;4.07;;;1.88;;
37955;SDS011;23776;51.592;7.180;2022-10-16T01:56:07;7.93;;;3.50;;
37955;SDS011;23776;51.592;7.180;2022-10-16T01:58:38;3.58;;;2.20;;
37955;SDS011;23776;51.592;7.180;2022-10-16T02:01:09;7.25;;;2.33;;
37955;SDS011;23776;51.592;7.180;2022-10-16T02:03:38;4.55;;;2.13;;
37955;SDS011;23776;51.592;7.180;2022-10-16T02:06:07;7.25;;;1.67;;
37955;SDS011;23776;51.592;7.180;2022-10-16T02:08:33;3.33;;;2.00;;
37955;SDS011;23776;51.592;7.180;2022-10-16T02:11:01;3.55;;;2.08;;
37955;SDS011;23776;51.592;7.180;2022-10-16T02:13:44;3.30;;;2.00;;
37955;SDS011;23776;51.592;7.180;2022-10-16T02:16:13;4.03;;;1.67;;
37955;SDS011;23776;51.592;7.180;2022-10-16T02:18:40;3.45;;;2.17;;
37955;SDS011;23776;51.592;7.180;2022-10-16T02:21:18;4.82;;;1.73;;
37955;SDS011;23776;51.592;7.180;2022-10-16T02:23:51;7.30;;;1.98;;
37955;SDS011;23776;51.592;7.180;2022-10-16T02:26:29;8.65;;;1.75;;
37955;SDS011;23776;51.592;7.180;2022-10-16T02:29:03;5.68;;;1.83;;
37955;SDS011;23776;51.592;7.180;2022-10-16T02:31:34;3.90;;;1.85;;
37955;SDS011;23776;51.592;7.180;2022-10-16T02:34:03;2.53;;;1.55;;
37955;SDS011;23776;51.592;7.180;2022-10-16T02:36:31;8.63;;;2.03;;
37955;SDS011;23776;51.592;7.180;2022-10-16T02:38:58;5.57;;;2.00;;
37955;SDS011;23776;51.592;7.180;2022-10-16T02:41:26;3.00;;;1.73;;
37955;SDS011;23776;51.592;7.180;2022-10-16T02:43:52;4.93;;;1.80;;
37955;SDS011;23776;51.592;7.180;2022-10-16T02:46:19;5.97;;;2.85;;
37955;SDS011;23776;51.592;7.180;2022-10-16T02:48:45;3.65;;;1.75;;
37955;SDS011;23776;51.592;7.180;2022-10-16T02:51:11;2.75;;;1.50;;
37955;SDS011;23776;51.592;7.180;2022-10-16T02:53:37;5.65;;;1.77;;
37955;SDS011;23776;51.592;7.180;2022-10-16T02:56:02;5.22;;;1.63;;
37955;SDS011;23776;51.592;7.180;2022-10-16T02:58:29;2.10;;;1.55;;
37955;SDS011;23776;51.592;7.180;2022-10-16T03:00:55;6.13;;;2.13;;
37955;SDS011;23776;51.592;7.180;2022-10-16T03:03:21;5.32;;;1.60;;
37955;SDS011;23776;51.592;7.180;2022-10-16T03:05:46;10.93;;;2.08;;
37955;SDS011;23776;51.592;7.180;2022-10-16T03:08:12;3.47;;;1.52;;
37955;SDS011;23776;51.592;7.180;2022-10-16T03:10:38;3.88;;;2.03;;
37955;SDS011;23776;51.592;7.180;2022-10-16T03:13:05;3.15;;;1.77;;
37955;SDS011;23776;51.592;7.180;2022-10-16T03:15:30;3.50;;;1.42;;
37955;SDS011;23776;51.592;7.180;2022-10-16T03:17:59;3.63;;;2.00;;
37955;SDS011;23776;51.592;7.180;2022-10-16T03:20:25;6.90;;;1.75;;
37955;SDS011;23776;51.592;7.180;2022-10-16T03:22:51;2.97;;;1.40;;
37955;SDS011;23776;51.592;7.180;2022-10-16T03:25:18;2.30;;;1.63;;
37955;SDS011;23776;51.592;7.180;2022-10-16T03:27:44;5.53;;;1.80;;
37955;SDS011;23776;51.592;7.180;2022-10-16T03:30:10;2.28;;;1.50;;
37955;SDS011;23776;51.592;7.180;2022-10-16T03:32:35;2.58;;;1.85;;
37955;SDS011;23776;51.592;7.180;2022-10-16T03:35:02;3.88;;;1.80;;
37955;SDS011;23776;51.592;7.180;2022-10-16T03:37:28;5.72;;;1.40;;
37955;SDS011;23776;51.592;7.180;2022-10-16T03:39:54;3.55;;;1.40;;
37955;SDS011;23776;51.592;7.180;2022-10-16T03:42:19;2.13;;;1.35;;
37955;SDS011;23776;51.592;7.180;2022-10-16T03:44:45;2.22;;;1.55;;
37955;SDS011;23776;51.592;7.180;2022-10-16T03:47:11;2.90;;;1.42;;
37955;SDS011;23776;51.592;7.180;2022-10-16T03:49:38;3.53;;;1.10;;
37955;SDS011;23776;51.592;7.180;2022-10-16T03:52:03;5.47;;;1.77;;
37955;SDS011;23776;51.592;7.180;2022-10-16T03:54:29;4.07;;;1.10;;
37955;SDS011;23776;51.592;7.180;2022-10-16T03:56:54;3.70;;;1.50;;
37955;SDS011;23776;51.592;7.180;2022-10-16T03:59:20;5.82;;;1.60;;
37955;SDS011;23776;51.592;7.180;2022-10-16T04:01:45;2.85;;;1.27;;
37955;SDS011;23776;51.592;7.180;2022-10-16T04:04:11;2.33;;;1.50;;
37955;SDS011;23776;51.592;7.180;2022-10-16T04:06:36;3.15;;;1.40;;
37955;SDS011;23776;51.592;7.180;2022-10-16T04:09:02;1.65;;;1.30;;
37955;SDS011;23776;51.592;7.180;2022-10-16T04:11:28;2.53;;;1.33;;
37955;SDS011;23776;51.592;7.180;2022-10-16T04:13:53;4.13;;;1.45;;
37955;SDS011;23776;51.592;7.180;2022-10-16T04:16:19;3.67;;;1.50;;
37955;SDS011;23776;51.592;7.180;2022-10-16T04:18:46;3.33;;;1.20;;
37955;SDS011;23776;51.592;7.180;2022-10-16T04:21:11;2.55;;;1.10;;
37955;SDS011;23776;51.592;7.180;2022-10-16T04:23:37;3.22;;;1.58;;
37955;SDS011;23776;51.592;7.180;2022-10-16T04:26:04;4.22;;;1.80;;
37955;SDS011;23776;51.592;7.180;2022-10-16T04:28:29;5.75;;;1.20;;
37955;SDS011;23776;51.592;7.180;2022-10-16T04:30:55;3.70;;;1.23;;
37955;SDS011;23776;51.592;7.180;2022-10-16T04:33:21;2.38;;;1.42;;
37955;SDS011;23776;51.592;7.180;2022-10-16T04:35:47;4.40;;;1.42;;
37955;SDS011;23776;51.592;7.180;2022-10-16T04:38:13;2.53;;;1.38;;
37955;SDS011;23776;51.592;7.180;2022-10-16T04:40:38;3.72;;;1.27;;
37955;SDS011;23776;51.592;7.180;2022-10-16T04:43:06;4.32;;;1.55;;
37955;SDS011;23776;51.592;7.180;2022-10-16T04:45:32;4.60;;;1.60;;
37955;SDS011;23776;51.592;7.180;2022-10-16T04:47:58;1.95;;;1.58;;
37955;SDS011;23776;51.592;7.180;2022-10-16T04:50:24;5.32;;;1.67;;
37955;SDS011;23776;51.592;7.180;2022-10-16T04:52:49;2.55;;;1.40;;
37955;SDS011;23776;51.592;7.180;2022-10-16T04:55:15;3.30;;;1.90;;
37955;SDS011;23776;51.592;7.180;2022-10-16T04:57:41;5.68;;;2.17;;
37955;SDS011;23776;51.592;7.180;2022-10-16T05:00:07;2.08;;;1.23;;
37955;SDS011;23776;51.592;7.180;2022-10-16T05:02:33;3.92;;;1.80;;
37955;SDS011;23776;51.592;7.180;2022-10-16T05:04:59;3.60;;;1.35;;
37955;SDS011;23776;51.592;7.180;2022-10-16T05:07:24;3.28;;;1.40;;
37955;SDS011;23776;51.592;7.180;2022-10-16T05:09:50;3.40;;;1.40;;
37955;SDS011;23776;51.592;7.180;2022-10-16T05:12:16;2.65;;;1.60;;
37955;SDS011;23776;51.592;7.180;2022-10-16T05:14:42;2.60;;;1.40;;
37955;SDS011;23776;51.592;7.180;2022-10-16T05:17:07;4.43;;;1.63;;
37955;SDS011;23776;51.592;7.180;2022-10-16T05:19:33;4.30;;;1.65;;
37955;SDS011;23776;51.592;7.180;2022-10-16T05:21:59;8.48;;;1.40;;
37955;SDS011;23776;51.592;7.180;2022-10-16T05:24:25;4.85;;;1.40;;
37955;SDS011;23776;51.592;7.180;2022-10-16T05:26:51;2.92;;;1.42;;
37955;SDS011;23776;51.592;7.180;2022-10-16T05:29:17;10.52;;;1.67;;
37955;SDS011;23776;51.592;7.180;2022-10-16T05:31:43;2.92;;;1.70;;
37955;SDS011;23776;51.592;7.180;2022-10-16T05:34:08;4.90;;;1.75;;
37955;SDS011;23776;51.592;7.180;2022-10-16T05:36:34;1.90;;;1.20;;
37955;SDS011;23776;51.592;7.180;2022-10-16T05:39:00;3.53;;;1.55;;
37955;SDS011;23776;51.592;7.180;2022-10-16T05:41:25;3.20;;;1.42;;
37955;SDS011;23776;51.592;7.180;2022-10-16T05:43:51;1.88;;;1.30;;
37955;SDS011;23776;51.592;7.180;2022-10-16T05:46:18;3.70;;;1.67;;
37955;SDS011;23776;51.592;7.180;2022-10-16T05:48:43;3.53;;;1.45;;
37955;SDS011;23776;51.592;7.180;2022-10-16T05:51:10;3.42;;;1.63;;
37955;SDS011;23776;51.592;7.180;2022-10-16T05:53:37;2.28;;;1.20;;
37955;SDS011;23776;51.592;7.180;2022-10-16T05:56:04;1.95;;;1.25;;
37955;SDS011;23776;51.592;7.180;2022-10-16T05:58:31;3.28;;;1.73;;
37955;SDS011;23776;51.592;7.180;2022-10-16T06:01:04;3.90;;;1.30;;
37955;SDS011;23776;51.592;7.180;2022-10-16T06:03:32;2.92;;;1.65;;
37955;SDS011;23776;51.592;7.180;2022-10-16T06:05:58;4.32;;;1.60;;
37955;SDS011;23776;51.592;7.180;2022-10-16T06:08:32;1.80;;;1.48;;
37955;SDS011;23776;51.592;7.180;2022-10-16T06:11:01;2.78;;;1.40;;
37955;SDS011;23776;51.592;7.180;2022-10-16T06:15:58;6.00;;;1.60;;
37955;SDS011;23776;51.592;7.180;2022-10-16T06:18:24;4.18;;;1.30;;
37955;SDS011;23776;51.592;7.180;2022-10-16T06:20:52;2.10;;;1.52;;
37955;SDS011;23776;51.592;7.180;2022-10-16T06:23:18;3.15;;;1.60;;
37955;SDS011;23776;51.592;7.180;2022-10-16T06:25:45;3.67;;;1.38;;
37955;SDS011;23776;51.592;7.180;2022-10-16T06:28:10;3.90;;;1.70;;
37955;SDS011;23776;51.592;7.180;2022-10-16T06:30:36;4.55;;;1.80;;
37955;SDS011;23776;51.592;7.180;2022-10-16T06:33:01;2.50;;;1.70;;
37955;SDS011;23776;51.592;7.180;2022-10-16T06:35:27;2.47;;;1.48;;
37955;SDS011;23776;51.592;7.180;2022-10-16T06:37:54;9.65;;;1.70;;
37955;SDS011;23776;51.592;7.180;2022-10-16T06:40:20;1.85;;;1.40;;
37955;SDS011;23776;51.592;7.180;2022-10-16T06:42:45;2.22;;;1.55;;
37955;SDS011;23776;51.592;7.180;2022-10-16T06:45:11;1.90;;;1.45;;
37955;SDS011;23776;51.592;7.180;2022-10-16T06:47:37;4.15;;;1.15;;
37955;SDS011;23776;51.592;7.180;2022-10-16T06:50:03;3.78;;;1.45;;
37955;SDS011;23776;51.592;7.180;2022-10-16T06:52:31;5.53;;;1.63;;
37955;SDS011;23776;51.592;7.180;2022-10-16T06:54:57;4.28;;;1.52;;
37955;SDS011;23776;51.592;7.180;2022-10-16T06:57:24;4.03;;;1.60;;
37955;SDS011;23776;51.592;7.180;2022-10-16T06:59:49;3.63;;;1.77;;
37955;SDS011;23776;51.592;7.180;2022-10-16T07:02:15;4.28;;;1.60;;
37955;SDS011;23776;51.592;7.180;2022-10-16T07:04:40;3.80;;;1.40;;
37955;SDS011;23776;51.592;7.180;2022-10-16T07:07:06;6.78;;;1.48;;
37955;SDS011;23776;51.592;7.180;2022-10-16T07:09:33;4.00;;;1.35;;
37955;SDS011;23776;51.592;7.180;2022-10-16T07:12:00;2.22;;;1.35;;
37955;SDS011;23776;51.592;7.180;2022-10-16T07:14:25;6.18;;;1.88;;
37955;SDS011;23776;51.592;7.180;2022-10-16T07:16:51;4.97;;;1.58;;
37955;SDS011;23776;51.592;7.180;2022-10-16T07:19:17;5.15;;;2.50;;
37955;SDS011;23776;51.592;7.180;2022-10-16T07:21:43;7.95;;;2.05;;
37955;SDS011;23776;51.592;7.180;2022-10-16T07:24:13;5.93;;;2.03;;
37955;SDS011;23776;51.592;7.180;2022-10-16T07:26:41;5.65;;;1.92;;
37955;SDS011;23776;51.592;7.180;2022-10-16T07:29:12;3.42;;;1.48;;
37955;SDS011;23776;51.592;7.180;2022-10-16T07:31:39;4.88;;;1.70;;
37955;SDS011;23776;51.592;7.180;2022-10-16T07:34:05;2.35;;;1.65;;
37955;SDS011;23776;51.592;7.180;2022-10-16T07:36:31;2.85;;;1.73;;
37955;SDS011;23776;51.592;7.180;2022-10-16T07:38:56;3.95;;;1.77;;
37955;SDS011;23776;51.592;7.180;2022-10-16T07:41:22;4.35;;;1.58;;
37955;SDS011;23776;51.592;7.180;2022-10-16T07:43:49;4.07;;;1.80;;
37955;SDS011;23776;51.592;7.180;2022-10-16T07:46:17;3.72;;;1.92;;
37955;SDS011;23776;51.592;7.180;2022-10-16T07:48:44;2.63;;;1.58;;
37955;SDS011;23776;51.592;7.180;2022-10-16T07:51:12;8.13;;;1.95;;
37955;SDS011;23776;51.592;7.180;2022-10-16T07:53:39;5.55;;;1.92;;
37955;SDS011;23776;51.592;7.180;2022-10-16T07:56:05;3.63;;;1.83;;
37955;SDS011;23776;51.592;7.180;2022-10-16T07:58:32;6.07;;;1.92;;
37955;SDS011;23776;51.592;7.180;2022-10-16T08:01:02;3.25;;;1.83;;
37955;SDS011;23776;51.592;7.180;2022-10-16T08:05:59;7.40;;;1.63;;
37955;SDS011;23776;51.592;7.180;2022-10-16T08:08:25;4.00;;;1.90;;
37955;SDS011;23776;51.592;7.180;2022-10-16T08:10:53;2.92;;;1.60;;
37955;SDS011;23776;51.592;7.180;2022-10-16T08:13:18;7.68;;;1.77;;
37955;SDS011;23776;51.592;7.180;2022-10-16T08:15:44;4.53;;;1.98;;
37955;SDS011;23776;51.592;7.180;2022-10-16T08:18:11;5.20;;;1.65;;
37955;SDS011;23776;51.592;7.180;2022-10-16T08:20:38;7.13;;;1.40;;
37955;SDS011;23776;51.592;7.180;2022-10-16T08:23:04;3.35;;;1.48;;
37955;SDS011;23776;51.592;7.180;2022-10-16T08:25:30;6.63;;;1.40;;
37955;SDS011;23776;51.592;7.180;2022-10-16T08:27:56;3.70;;;1.55;;
37955;SDS011;23776;51.592;7.180;2022-10-16T08:30:22;6.30;;;1.55;;
37955;SDS011;23776;51.592;7.180;2022-10-16T08:32:48;6.43;;;1.40;;
37955;SDS011;23776;51.592;7.180;2022-10-16T08:35:14;6.10;;;1.63;;
37955;SDS011;23776;51.592;7.180;2022-10-16T08:37:40;6.95;;;1.17;;
37955;SDS011;23776;51.592;7.180;2022-10-16T08:40:07;2.97;;;0.90;;
37955;SDS011;23776;51.592;7.180;2022-10-16T08:51:08;4.38;;;2.22;;
37955;SDS011;23776;51.592;7.180;2022-10-16T08:53:44;4.07;;;1.10;;
37955;SDS011;23776;51.592;7.180;2022-10-16T08:56:22;2.30;;;1.08;;
37955;SDS011;23776;51.592;7.180;2022-10-16T08:58:49;5.60;;;1.17;;
37955;SDS011;23776;51.592;7.180;2022-10-16T09:01:17;8.27;;;1.42;;
37955;SDS011;23776;51.592;7.180;2022-10-16T09:12:30;6.68;;;1.70;;
37955;SDS011;23776;51.592;7.180;2022-10-16T09:15:20;8.75;;;1.60;;
37955;SDS011;23776;51.592;7.180;2022-10-16T09:18:21;6.70;;;1.60;;
37955;SDS011;23776;51.592;7.180;2022-10-16T09:23:43;5.82;;;1.60;;
37955;SDS011;23776;51.592;7.180;2022-10-16T09:26:10;3.00;;;1.10;;
37955;SDS011;23776;51.592;7.180;2022-10-16T09:28:38;4.85;;;1.33;;
37955;SDS011;23776;51.592;7.180;2022-10-16T09:31:04;9.20;;;1.30;;
37955;SDS011;23776;51.592;7.180;2022-10-16T09:33:35;7.70;;;1.30;;
37955;SDS011;23776;51.592;7.180;2022-10-16T09:36:04;5.95;;;1.23;;
37955;SDS011;23776;51.592;7.180;2022-10-16T09:38:35;5.18;;;1.60;;
37955;SDS011;23776;51.592;7.180;2022-10-16T09:41:02;6.82;;;1.20;;
37955;SDS011;23776;51.592;7.180;2022-10-16T09:44:00;3.42;;;1.35;;
37955;SDS011;23776;51.592;7.180;2022-10-16T09:46:28;3.58;;;1.30;;
37955;SDS011;23776;51.592;7.180;2022-10-16T09:49:02;7.72;;;1.40;;
37955;SDS011;23776;51.592;7.180;2022-10-16T09:51:41;12.30;;;1.88;;
37955;SDS011;23776;51.592;7.180;2022-10-16T09:56:39;6.70;;;1.42;;
37955;SDS011;23776;51.592;7.180;2022-10-16T09:59:14;5.45;;;1.30;;
37955;SDS011;23776;51.592;7.180;2022-10-16T10:01:42;3.45;;;1.35;;
37955;SDS011;23776;51.592;7.180;2022-10-16T10:04:14;5.40;;;1.40;;
37955;SDS011;23776;51.592;7.180;2022-10-16T10:06:43;5.63;;;1.30;;
37955;SDS011;23776;51.592;7.180;2022-10-16T10:12:05;6.30;;;1.65;;
37955;SDS011;23776;51.592;7.180;2022-10-16T10:14:38;7.07;;;1.90;;
37955;SDS011;23776;51.592;7.180;2022-10-16T10:19:47;3.15;;;1.20;;
37955;SDS011;23776;51.592;7.180;2022-10-16T10:22:43;5.93;;;1.67;;
37955;SDS011;23776;51.592;7.180;2022-10-16T10:25:13;2.67;;;1.10;;
37955;SDS011;23776;51.592;7.180;2022-10-16T10:38:57;6.22;;;1.65;;
37955;SDS011;23776;51.592;7.180;2022-10-16T10:50:07;3.47;;;1.63;;
37955;SDS011;23776;51.592;7.180;2022-10-16T11:00:59;2.60;;;1.35;;
37955;SDS011;23776;51.592;7.180;2022-10-16T11:06:26;4.90;;;1.20;;
37955;SDS011;23776;51.592;7.180;2022-10-16T11:11:57;2.63;;;1.42;;
37955;SDS011;23776;51.592;7.180;2022-10-16T11:20:05;15.35;;;6.75;;
37955;SDS011;23776;51.592;7.180;2022-10-16T11:22:42;8.00;;;3.22;;
37955;SDS011;23776;51.592;7.180;2022-10-16T11:30:21;3.03;;;0.77;;
37955;SDS011;23776;51.592;7.180;2022-10-16T11:33:00;7.20;;;2.00;;
37955;SDS011;23776;51.592;7.180;2022-10-16T11:35:48;4.45;;;1.17;;
37955;SDS011;23776;51.592;7.180;2022-10-16T11:40:54;3.08;;;1.10;;
37955;SDS011;23776;51.592;7.180;2022-10-16T11:43:26;2.22;;;1.00;;
37955;SDS011;23776;51.592;7.180;2022-10-16T11:46:02;1.80;;;0.70;;
37955;SDS011;23776;51.592;7.180;2022-10-16T11:48:36;2.22;;;0.73;;
37955;SDS011;23776;51.592;7.180;2022-10-16T11:51:13;3.20;;;1.00;;
37955;SDS011;23776;51.592;7.180;2022-10-16T11:53:54;1.70;;;0.70;;
37955;SDS011;23776;51.592;7.180;2022-10-16T11:56:25;2.72;;;0.90;;
37955;SDS011;23776;51.592;7.180;2022-10-16T11:59:06;4.10;;;0.75;;
37955;SDS011;23776;51.592;7.180;2022-10-16T12:04:43;2.65;;;1.00;;
37955;SDS011;23776;51.592;7.180;2022-10-16T12:07:16;3.75;;;1.00;;
37955;SDS011;23776;51.592;7.180;2022-10-16T12:09:50;4.28;;;1.00;;
37955;SDS011;23776;51.592;7.180;2022-10-16T12:12:25;4.43;;;1.00;;
37955;SDS011;23776;51.592;7.180;2022-10-16T12:15:02;2.10;;;0.70;;
37955;SDS011;23776;51.592;7.180;2022-10-16T12:17:43;2.03;;;0.98;;
37955;SDS011;23776;51.592;7.180;2022-10-16T12:23:20;4.13;;;0.95;;
37955;SDS011;23776;51.592;7.180;2022-10-16T12:25:32;14.65;;;3.92;;
37955;SDS011;23776;51.592;7.180;2022-10-16T12:30:29;6.07;;;1.73;;
37955;SDS011;23776;51.592;7.180;2022-10-16T12:32:57;5.88;;;1.80;;
37955;SDS011;23776;51.592;7.180;2022-10-16T12:35:27;4.00;;;1.08;;
37955;SDS011;23776;51.592;7.180;2022-10-16T12:38:05;2.67;;;0.82;;
37955;SDS011;23776;51.592;7.180;2022-10-16T12:40:41;1.92;;;0.80;;
37955;SDS011;23776;51.592;7.180;2022-10-16T12:43:13;1.80;;;0.77;;
37955;SDS011;23776;51.592;7.180;2022-10-16T12:48:35;2.80;;;0.95;;
37955;SDS011;23776;51.592;7.180;2022-10-16T12:52:03;3.65;;;1.05;;
37955;SDS011;23776;51.592;7.180;2022-10-16T12:53:58;5.53;;;1.50;;
37955;SDS011;23776;51.592;7.180;2022-10-16T12:56:35;5.97;;;1.20;;
37955;SDS011;23776;51.592;7.180;2022-10-16T14:14:09;4.55;;;1.10;;
37955;SDS011;23776;51.592;7.180;2022-10-16T14:19:46;2.58;;;0.70;;
37955;SDS011;23776;51.592;7.180;2022-10-16T14:22:27;5.85;;;0.85;;
37955;SDS011;23776;51.592;7.180;2022-10-16T14:25:01;3.88;;;1.30;;
37955;SDS011;23776;51.592;7.180;2022-10-16T14:28:02;8.38;;;2.33;;
37955;SDS011;23776;51.592;7.180;2022-10-16T14:38:31;1.40;;;0.65;;
37955;SDS011;23776;51.592;7.180;2022-10-16T14:40:58;2.63;;;0.85;;
37955;SDS011;23776;51.592;7.180;2022-10-16T14:43:32;3.25;;;0.90;;
37955;SDS011;23776;51.592;7.180;2022-10-16T14:46:22;2.38;;;0.65;;
37955;SDS011;23776;51.592;7.180;2022-10-16T14:48:57;1.95;;;0.70;;
37955;SDS011;23776;51.592;7.180;2022-10-16T14:51:30;3.35;;;0.77;;
37955;SDS011;23776;51.592;7.180;2022-10-16T14:53:55;4.70;;;0.85;;
37955;SDS011;23776;51.592;7.180;2022-10-16T14:56:22;2.50;;;0.73;;
37955;SDS011;23776;51.592;7.180;2022-10-16T14:58:49;2.58;;;1.00;;
37955;SDS011;23776;51.592;7.180;2022-10-16T15:01:17;1.92;;;0.75;;
37955;SDS011;23776;51.592;7.180;2022-10-16T15:03:44;3.42;;;1.00;;
37955;SDS011;23776;51.592;7.180;2022-10-16T15:06:10;1.15;;;0.50;;
37955;SDS011;23776;51.592;7.180;2022-10-16T15:08:37;1.90;;;0.60;;
37955;SDS011;23776;51.592;7.180;2022-10-16T15:11:03;3.03;;;0.70;;
37955;SDS011;23776;51.592;7.180;2022-10-16T15:13:29;3.72;;;0.75;;
37955;SDS011;23776;51.592;7.180;2022-10-16T15:15:56;4.28;;;0.70;;
37955;SDS011;23776;51.592;7.180;2022-10-16T15:18:21;4.00;;;0.80;;
37955;SDS011;23776;51.592;7.180;2022-10-16T15:20:50;2.10;;;0.75;;
37955;SDS011;23776;51.592;7.180;2022-10-16T15:23:18;4.00;;;1.30;;
37955;SDS011;23776;51.592;7.180;2022-10-16T15:25:46;1.50;;;0.70;;
37955;SDS011;23776;51.592;7.180;2022-10-16T15:28:17;3.90;;;0.55;;
37955;SDS011;23776;51.592;7.180;2022-10-16T15:30:43;4.28;;;0.80;;
37955;SDS011;23776;51.592;7.180;2022-10-16T15:33:17;4.57;;;0.70;;
37955;SDS011;23776;51.592;7.180;2022-10-16T15:35:48;6.15;;;1.95;;
37955;SDS011;23776;51.592;7.180;2022-10-16T15:38:15;5.85;;;0.77;;
37955;SDS011;23776;51.592;7.180;2022-10-16T15:40:42;3.72;;;0.82;;
37955;SDS011;23776;51.592;7.180;2022-10-16T15:43:07;4.22;;;1.00;;
37955;SDS011;23776;51.592;7.180;2022-10-16T15:45:34;3.15;;;0.60;;
37955;SDS011;23776;51.592;7.180;2022-10-16T15:47:59;2.75;;;0.90;;
37955;SDS011;23776;51.592;7.180;2022-10-16T15:50:25;8.40;;;0.85;;
37955;SDS011;23776;51.592;7.180;2022-10-16T15:52:51;7.43;;;1.08;;
37955;SDS011;23776;51.592;7.180;2022-10-16T15:55:17;4.50;;;0.73;;
37955;SDS011;23776;51.592;7.180;2022-10-16T15:57:43;3.50;;;0.88;;
37955;SDS011;23776;51.592;7.180;2022-10-16T16:00:11;7.07;;;0.80;;
37955;SDS011;23776;51.592;7.180;2022-10-16T16:02:41;3.53;;;0.82;;
37955;SDS011;23776;51.592;7.180;2022-10-16T16:05:08;8.55;;;1.08;;
37955;SDS011;23776;51.592;7.180;2022-10-16T16:07:35;4.75;;;0.90;;
37955;SDS011;23776;51.592;7.180;2022-10-16T16:10:02;5.70;;;0.82;;
37955;SDS011;23776;51.592;7.180;2022-10-16T16:12:30;13.43;;;1.25;;
37955;SDS011;23776;51.592;7.180;2022-10-16T16:14:55;6.40;;;0.90;;
37955;SDS011;23776;51.592;7.180;2022-10-16T16:17:21;3.40;;;1.20;;
37955;SDS011;23776;51.592;7.180;2022-10-16T16:19:47;8.45;;;1.23;;
37955;SDS011;23776;51.592;7.180;2022-10-16T16:22:12;9.57;;;1.23;;
37955;SDS011;23776;51.592;7.180;2022-10-16T16:24:38;2.45;;;1.10;;
37955;SDS011;23776;51.592;7.180;2022-10-16T16:27:04;6.65;;;1.35;;
37955;SDS011;23776;51.592;7.180;2022-10-16T16:29:30;6.18;;;1.30;;
37955;SDS011;23776;51.592;7.180;2022-10-16T16:31:55;8.88;;;1.10;;
37955;SDS011;23776;51.592;7.180;2022-10-16T16:34:26;4.53;;;0.90;;
37955;SDS011;23776;51.592;7.180;2022-10-16T16:36:52;9.00;;;1.15;;
37955;SDS011;23776;51.592;7.180;2022-10-16T16:39:19;2.65;;;1.13;;
37955;SDS011;23776;51.592;7.180;2022-10-16T16:41:45;4.97;;;1.25;;
37955;SDS011;23776;51.592;7.180;2022-10-16T16:44:11;11.07;;;1.40;;
37955;SDS011;23776;51.592;7.180;2022-10-16T16:46:38;9.57;;;1.00;;
37955;SDS011;23776;51.592;7.180;2022-10-16T16:49:05;14.25;;;3.15;;
37955;SDS011;23776;51.592;7.180;2022-10-16T16:51:33;3.22;;;1.40;;
37955;SDS011;23776;51.592;7.180;2022-10-16T16:53:59;5.78;;;1.10;;
37955;SDS011;23776;51.592;7.180;2022-10-16T16:56:25;12.18;;;1.73;;
37955;SDS011;23776;51.592;7.180;2022-10-16T16:58:54;16.00;;;2.35;;
37955;SDS011;23776;51.592;7.180;2022-10-16T17:01:23;6.43;;;1.60;;
37955;SDS011;23776;51.592;7.180;2022-10-16T17:03:52;5.07;;;1.50;;
37955;SDS011;23776;51.592;7.180;2022-10-16T17:06:20;5.15;;;1.90;;
37955;SDS011;23776;51.592;7.180;2022-10-16T17:08:47;12.05;;;3.22;;
37955;SDS011;23776;51.592;7.180;2022-10-16T17:11:14;11.07;;;2.25;;
37955;SDS011;23776;51.592;7.180;2022-10-16T17:13:45;15.00;;;2.53;;
37955;SDS011;23776;51.592;7.180;2022-10-16T17:16:11;3.88;;;2.13;;
37955;SDS011;23776;51.592;7.180;2022-10-16T17:18:37;10.52;;;2.50;;
37955;SDS011;23776;51.592;7.180;2022-10-16T17:21:05;7.75;;;2.30;;
37955;SDS011;23776;51.592;7.180;2022-10-16T17:23:33;7.28;;;2.53;;
37955;SDS011;23776;51.592;7.180;2022-10-16T17:26:06;18.02;;;2.67;;
37955;SDS011;23776;51.592;7.180;2022-10-16T17:28:40;7.43;;;2.60;;
37955;SDS011;23776;51.592;7.180;2022-10-16T17:31:11;12.50;;;2.30;;
37955;SDS011;23776;51.592;7.180;2022-10-16T17:33:42;4.97;;;2.45;;
37955;SDS011;23776;51.592;7.180;2022-10-16T17:36:09;6.10;;;2.60;;
37955;SDS011;23776;51.592;7.180;2022-10-16T17:38:35;10.95;;;2.50;;
37955;SDS011;23776;51.592;7.180;2022-10-16T17:41:11;15.77;;;2.95;;
37955;SDS011;23776;51.592;7.180;2022-10-16T17:43:42;5.40;;;2.13;;
37955;SDS011;23776;51.592;7.180;2022-10-16T17:46:08;11.27;;;2.40;;
37955;SDS011;23776;51.592;7.180;2022-10-16T17:48:38;5.72;;;2.22;;
37955;SDS011;23776;51.592;7.180;2022-10-16T17:51:09;8.52;;;2.65;;
37955;SDS011;23776;51.592;7.180;2022-10-16T17:53:36;5.25;;;2.10;;
37955;SDS011;23776;51.592;7.180;2022-10-16T17:56:03;9.13;;;2.15;;
37955;SDS011;23776;51.592;7.180;2022-10-16T17:58:33;7.30;;;2.15;;
37955;SDS011;23776;51.592;7.180;2022-10-16T18:00:59;8.50;;;3.10;;
37955;SDS011;23776;51.592;7.180;2022-10-16T18:03:25;12.25;;;3.38;;
37955;SDS011;23776;51.592;7.180;2022-10-16T18:05:52;13.98;;;3.45;;
37955;SDS011;23776;51.592;7.180;2022-10-16T18:08:19;10.85;;;3.25;;
37955;SDS011;23776;51.592;7.180;2022-10-16T18:10:46;8.00;;;3.40;;